Time;durP1;ratioP1;P1;durP2;ratioP2;P2;SDS_P1;SDS_P2;PMS_P1;PMS_P2;Temp;Humidity;BMP_temperature;BMP_pressure;BME280_temperature;BME280_humidity;BME280_pressure;Samples;Min_cycle;Max_cycle;Signal;HPM_P1;HPM_P2
2022/09/25 00:02:18;;;;;;;3.63;2.90;;;;;;;;;;5094387;28;20012;-91
2022/09/25 00:04:44;;;;;;;4.60;3.00;;;;;;;;;;5073951;28;20065;-91
2022/09/25 00:07:10;;;;;;;3.42;2.90;;;;;;;;;;5088095;28;20019;-90
2022/09/25 00:09:37;;;;;;;4.68;2.95;;;;;;;;;;5069334;28;20171;-93
2022/09/25 00:12:03;;;;;;;3.33;2.80;;;;;;;;;;5078330;28;20023;-91
2022/09/25 00:14:29;;;;;;;4.97;2.70;;;;;;;;;;5081009;28;20043;-92
2022/09/25 00:16:55;;;;;;;4.00;2.80;;;;;;;;;;5072239;28;20136;-91
2022/09/25 00:22:06;;;;;;;3.67;2.75;;;;;;;;;;5093546;28;20070;-91
2022/09/25 00:24:33;;;;;;;3.22;2.65;;;;;;;;;;5074695;28;20024;-89
2022/09/25 00:27:00;;;;;;;5.32;3.00;;;;;;;;;;5085839;28;21039;-90
2022/09/25 00:29:26;;;;;;;3.08;2.63;;;;;;;;;;5093084;28;20032;-89
2022/09/25 00:31:54;;;;;;;3.35;2.45;;;;;;;;;;5071561;28;20056;-89
2022/09/25 00:34:20;;;;;;;3.60;2.75;;;;;;;;;;5073154;28;20024;-88
2022/09/25 00:36:46;;;;;;;3.25;2.83;;;;;;;;;;5069595;28;20036;-89
2022/09/25 00:39:12;;;;;;;4.32;3.10;;;;;;;;;;5077575;28;20111;-89
2022/09/25 00:41:39;;;;;;;4.55;2.85;;;;;;;;;;5075609;28;20538;-89
2022/09/25 00:44:25;;;;;;;5.25;3.00;;;;;;;;;;5078106;28;20114;-89
2022/09/25 00:46:51;;;;;;;3.08;2.70;;;;;;;;;;5074124;28;20024;-89
2022/09/25 00:49:19;;;;;;;4.63;2.80;;;;;;;;;;5075656;28;20024;-88
2022/09/25 00:51:52;;;;;;;4.57;2.67;;;;;;;;;;5070545;28;20068;-90
2022/09/25 00:54:47;;;;;;;3.25;2.95;;;;;;;;;;5074320;28;20087;-88
2022/09/25 00:57:17;;;;;;;3.10;2.60;;;;;;;;;;5065116;28;20176;-87
2022/09/25 00:59:46;;;;;;;3.22;2.90;;;;;;;;;;5089094;28;20020;-88
2022/09/25 01:02:16;;;;;;;7.07;2.80;;;;;;;;;;5074812;28;20279;-87
2022/09/25 01:04:44;;;;;;;4.05;2.70;;;;;;;;;;5091861;28;20036;-88
2022/09/25 01:07:11;;;;;;;5.40;2.78;;;;;;;;;;5076775;28;20024;-88
2022/09/25 01:09:38;;;;;;;3.35;2.83;;;;;;;;;;5078922;28;20063;-87
2022/09/25 01:12:04;;;;;;;4.47;2.53;;;;;;;;;;5073150;28;20028;-88
2022/09/25 01:14:32;;;;;;;3.05;2.75;;;;;;;;;;5089776;28;20040;-87
2022/09/25 01:17:03;;;;;;;5.28;2.95;;;;;;;;;;5069657;28;20027;-88
2022/09/25 01:19:36;;;;;;;3.22;2.58;;;;;;;;;;5073912;28;20028;-88
2022/09/25 01:22:25;;;;;;;5.13;2.63;;;;;;;;;;5071399;28;20568;-89
2022/09/25 01:24:59;;;;;;;3.13;2.70;;;;;;;;;;5076374;28;20085;-89
2022/09/25 01:27:48;;;;;;;2.90;2.60;;;;;;;;;;5076834;28;20032;-88
2022/09/25 01:30:17;;;;;;;3.45;2.60;;;;;;;;;;5071938;28;20123;-88
2022/09/25 01:32:59;;;;;;;3.00;2.70;;;;;;;;;;5072247;28;20024;-89
2022/09/25 01:35:36;;;;;;;9.23;3.47;;;;;;;;;;5073965;28;20024;-88
2022/09/25 01:38:12;;;;;;;3.33;2.40;;;;;;;;;;5073263;28;20055;-88
2022/09/25 01:40:39;;;;;;;2.80;2.55;;;;;;;;;;5073792;28;20055;-90
2022/09/25 01:43:14;;;;;;;4.80;2.80;;;;;;;;;;5076246;28;20032;-89
2022/09/25 01:45:47;;;;;;;8.50;2.50;;;;;;;;;;5072607;28;20131;-89
2022/09/25 01:48:15;;;;;;;4.60;2.60;;;;;;;;;;5075787;28;20483;-90
2022/09/25 01:50:44;;;;;;;2.40;2.20;;;;;;;;;;5064209;28;20096;-90
2022/09/25 01:53:13;;;;;;;3.50;2.10;;;;;;;;;;5054734;28;20104;-88
2022/09/25 01:55:43;;;;;;;4.47;2.33;;;;;;;;;;5046997;28;20225;-89
2022/09/25 01:58:24;;;;;;;4.63;2.60;;;;;;;;;;5051502;28;20063;-89
2022/09/25 02:00:54;;;;;;;4.50;2.50;;;;;;;;;;5049299;28;20036;-89
2022/09/25 02:03:27;;;;;;;3.72;2.85;;;;;;;;;;5050145;28;20025;-89
2022/09/25 02:05:55;;;;;;;6.28;2.10;;;;;;;;;;5051172;28;20069;-89
2022/09/25 02:08:24;;;;;;;3.55;2.50;;;;;;;;;;5050724;28;20480;-90
2022/09/25 02:10:56;;;;;;;3.38;2.50;;;;;;;;;;5050533;28;20039;-89
2022/09/25 02:13:22;;;;;;;;;;;;;;;;;;5052103;28;20887;-89
2022/09/25 02:15:51;;;;;;;4.00;2.53;;;;;;;;;;5046742;28;20004;-88
2022/09/25 02:21:11;;;;;;;2.50;2.17;;;;;;;;;;5049805;28;20391;-88
2022/09/25 02:23:56;;;;;;;2.70;2.30;;;;;;;;;;5050410;28;20061;-89
2022/09/25 02:26:25;;;;;;;3.08;2.42;;;;;;;;;;5050718;28;20111;-89
2022/09/25 02:28:52;;;;;;;3.60;2.53;;;;;;;;;;5048542;28;20047;-89
2022/09/25 02:31:20;;;;;;;2.83;2.20;;;;;;;;;;5049793;28;20025;-88
2022/09/25 02:33:46;;;;;;;2.45;2.20;;;;;;;;;;5045373;28;20071;-89
2022/09/25 02:36:17;;;;;;;4.28;2.70;;;;;;;;;;5046373;28;20115;-89
2022/09/25 02:38:44;;;;;;;2.65;2.45;;;;;;;;;;5050988;28;20021;-90
2022/09/25 02:41:19;;;;;;;4.00;2.30;;;;;;;;;;5042964;28;20083;-90
2022/09/25 02:43:49;;;;;;;3.17;2.28;;;;;;;;;;5050692;28;20505;-90
2022/09/25 02:46:22;;;;;;;2.40;2.20;;;;;;;;;;5051512;28;20075;-91
2022/09/25 02:48:56;;;;;;;2.65;2.20;;;;;;;;;;5047698;28;20542;-90
2022/09/25 02:51:29;;;;;;;2.95;2.20;;;;;;;;;;5064700;28;20036;-90
2022/09/25 02:53:58;;;;;;;2.70;2.25;;;;;;;;;;5072409;28;20023;-91
2022/09/25 02:56:37;;;;;;;5.20;2.40;;;;;;;;;;5069784;28;20115;-90
2022/09/25 02:59:12;;;;;;;2.97;2.33;;;;;;;;;;5068466;28;20032;-90
2022/09/25 03:01:40;;;;;;;4.40;2.20;;;;;;;;;;5067983;28;20052;-91
2022/09/25 03:04:08;;;;;;;4.57;2.25;;;;;;;;;;5066221;28;20025;-91
2022/09/25 03:06:35;;;;;;;3.15;2.15;;;;;;;;;;5082219;28;20060;-91
2022/09/25 03:09:02;;;;;;;2.50;2.20;;;;;;;;;;5070253;28;20082;-91
2022/09/25 03:11:28;;;;;;;3.33;1.98;;;;;;;;;;5069282;28;20383;-92
2022/09/25 03:14:00;;;;;;;3.03;2.33;;;;;;;;;;5072533;28;20479;-92
2022/09/25 03:16:44;;;;;;;4.30;2.25;;;;;;;;;;5075024;28;20038;-90
2022/09/25 03:19:11;;;;;;;2.30;2.00;;;;;;;;;;5080477;28;20492;-91
2022/09/25 03:21:37;;;;;;;3.33;2.20;;;;;;;;;;5091223;28;20107;-91
2022/09/25 03:24:03;;;;;;;2.92;2.20;;;;;;;;;;5071244;28;20021;-92
2022/09/25 03:26:30;;;;;;;3.63;2.45;;;;;;;;;;5076437;28;20119;-92
2022/09/25 03:29:01;;;;;;;3.78;2.38;;;;;;;;;;5072982;28;20037;-91
2022/09/25 03:31:28;;;;;;;2.67;2.47;;;;;;;;;;5080516;28;20027;-90
2022/09/25 03:33:55;;;;;;;3.53;2.13;;;;;;;;;;5078032;28;20029;-91
2022/09/25 03:36:22;;;;;;;3.08;2.10;;;;;;;;;;5089665;28;20025;-91
2022/09/25 03:38:56;;;;;;;2.80;2.30;;;;;;;;;;5073834;28;20025;-91
2022/09/25 03:41:23;;;;;;;3.38;2.42;;;;;;;;;;5073509;28;20021;-91
2022/09/25 03:43:50;;;;;;;2.28;2.08;;;;;;;;;;5073293;28;20063;-91
2022/09/25 03:46:18;;;;;;;5.97;2.50;;;;;;;;;;5067213;28;20029;-91
2022/09/25 03:48:45;;;;;;;2.42;2.08;;;;;;;;;;5096099;28;20024;-92
2022/09/25 03:51:11;;;;;;;2.50;2.15;;;;;;;;;;5080862;28;20064;-91
2022/09/25 03:53:38;;;;;;;2.97;2.25;;;;;;;;;;5088387;28;20234;-92
2022/09/25 03:56:06;;;;;;;2.80;1.88;;;;;;;;;;5072720;28;20032;-92
2022/09/25 03:58:33;;;;;;;3.88;2.70;;;;;;;;;;5077037;28;20088;-92
2022/09/25 04:01:00;;;;;;;3.05;2.30;;;;;;;;;;5077854;28;20028;-92
2022/09/25 04:03:30;;;;;;;3.40;2.70;;;;;;;;;;5073362;28;20488;-92
2022/09/25 04:05:57;;;;;;;5.95;2.28;;;;;;;;;;5075455;28;20031;-92
2022/09/25 04:08:25;;;;;;;5.43;2.33;;;;;;;;;;5073132;28;20021;-93
2022/09/25 04:10:57;;;;;;;3.80;2.22;;;;;;;;;;5069770;28;20127;-90
2022/09/25 04:13:23;;;;;;;3.72;2.42;;;;;;;;;;5070187;28;20025;-92
2022/09/25 04:15:50;;;;;;;4.80;2.28;;;;;;;;;;5073188;28;20029;-93
2022/09/25 04:18:16;;;;;;;6.97;2.50;;;;;;;;;;5067591;28;20021;-93
2022/09/25 04:20:42;;;;;;;2.55;2.05;;;;;;;;;;5087644;28;20085;-92
2022/09/25 04:23:09;;;;;;;4.50;2.30;;;;;;;;;;5073083;28;20044;-91
2022/09/25 04:25:35;;;;;;;4.35;2.42;;;;;;;;;;5072423;28;20048;-91
2022/09/25 04:28:01;;;;;;;4.10;2.42;;;;;;;;;;5070284;28;20028;-92
2022/09/25 04:30:28;;;;;;;2.70;2.00;;;;;;;;;;5082789;28;20137;-93
2022/09/25 04:35:43;;;;;;;2.92;2.20;;;;;;;;;;5066476;28;20613;-92
2022/09/25 04:38:09;;;;;;;3.45;2.08;;;;;;;;;;5072776;28;20084;-91
2022/09/25 04:40:36;;;;;;;5.20;2.70;;;;;;;;;;5073419;28;20035;-91
2022/09/25 04:43:03;;;;;;;6.35;2.53;;;;;;;;;;5073777;28;20023;-91
2022/09/25 04:45:30;;;;;;;2.85;2.22;;;;;;;;;;5076097;28;20055;-92
2022/09/25 04:47:58;;;;;;;3.65;2.40;;;;;;;;;;5073586;28;20024;-92
2022/09/25 04:50:25;;;;;;;3.13;2.33;;;;;;;;;;5068936;28;20144;-92
2022/09/25 04:52:52;;;;;;;3.90;2.45;;;;;;;;;;5052269;28;20021;-92
2022/09/25 04:55:19;;;;;;;2.50;2.30;;;;;;;;;;5049486;28;20541;-92
2022/09/25 04:57:45;;;;;;;2.95;1.98;;;;;;;;;;5052007;28;20071;-92
2022/09/25 05:00:15;;;;;;;3.78;2.13;;;;;;;;;;5046895;28;20048;-91
2022/09/25 05:02:42;;;;;;;2.42;2.17;;;;;;;;;;5043751;28;20108;-92
2022/09/25 05:05:09;;;;;;;2.72;2.30;;;;;;;;;;5047949;28;20029;-92
2022/09/25 05:07:35;;;;;;;5.47;2.45;;;;;;;;;;5049442;28;20083;-92
2022/09/25 05:10:01;;;;;;;3.08;2.30;;;;;;;;;;5051024;28;20041;-92
2022/09/25 05:12:27;;;;;;;3.65;2.10;;;;;;;;;;5051402;28;20092;-91
2022/09/25 05:14:54;;;;;;;3.05;2.50;;;;;;;;;;5051573;28;20074;-92
2022/09/25 05:17:20;;;;;;;3.00;2.25;;;;;;;;;;5045464;28;20073;-91
2022/09/25 05:19:46;;;;;;;4.72;2.47;;;;;;;;;;5046947;28;20049;-91
2022/09/25 05:22:12;;;;;;;3.00;2.13;;;;;;;;;;5043554;28;20408;-91
2022/09/25 05:24:38;;;;;;;3.95;2.50;;;;;;;;;;5046388;28;20037;-91
2022/09/25 05:27:05;;;;;;;3.28;2.30;;;;;;;;;;5045114;28;20036;-91
2022/09/25 05:29:31;;;;;;;2.30;2.10;;;;;;;;;;5041657;28;20037;-92
2022/09/25 05:31:57;;;;;;;2.42;2.22;;;;;;;;;;5038314;28;20072;-92
2022/09/25 05:34:23;;;;;;;3.05;2.17;;;;;;;;;;5043760;28;20559;-91
2022/09/25 05:36:51;;;;;;;2.15;1.95;;;;;;;;;;5048227;28;20035;-92
2022/09/25 05:39:17;;;;;;;2.42;2.22;;;;;;;;;;5044175;28;20030;-91
2022/09/25 05:41:43;;;;;;;9.93;4.35;;;;;;;;;;5044535;28;20033;-92
2022/09/25 05:44:10;;;;;;;11.75;5.95;;;;;;;;;;5047148;28;20104;-91
2022/09/25 05:46:36;;;;;;;6.68;5.13;;;;;;;;;;5041920;28;20076;-92
2022/09/25 05:49:03;;;;;;;10.07;5.60;;;;;;;;;;5048733;28;20112;-91
2022/09/25 05:51:30;;;;;;;11.15;5.10;;;;;;;;;;5058778;28;20070;-91
2022/09/25 05:53:56;;;;;;;11.02;6.15;;;;;;;;;;5066629;28;20012;-91
2022/09/25 05:56:23;;;;;;;10.30;6.30;;;;;;;;;;5067673;28;20020;-91
2022/09/25 05:58:50;;;;;;;6.78;4.95;;;;;;;;;;5074213;28;20020;-92
2022/09/25 06:01:16;;;;;;;9.82;6.28;;;;;;;;;;5067428;28;20032;-91
2022/09/25 06:03:42;;;;;;;7.13;5.13;;;;;;;;;;5071373;28;20121;-92
2022/09/25 06:06:09;;;;;;;6.93;4.25;;;;;;;;;;5070206;28;20035;-91
2022/09/25 06:08:35;;;;;;;5.18;3.60;;;;;;;;;;5065476;28;20020;-92
2022/09/25 06:11:01;;;;;;;6.93;3.40;;;;;;;;;;5066736;28;20024;-92
2022/09/25 06:13:29;;;;;;;4.05;2.88;;;;;;;;;;5073488;28;20013;-92
2022/09/25 06:15:55;;;;;;;3.88;2.85;;;;;;;;;;5090350;28;20047;-92
2022/09/25 06:18:23;;;;;;;7.05;2.83;;;;;;;;;;5090410;28;20023;-91
2022/09/25 06:20:50;;;;;;;4.53;2.67;;;;;;;;;;5070750;28;20024;-91
2022/09/25 06:23:17;;;;;;;4.60;2.60;;;;;;;;;;5071700;28;20398;-92
2022/09/25 06:25:43;;;;;;;4.80;2.80;;;;;;;;;;5078493;28;20097;-92
2022/09/25 06:28:10;;;;;;;3.65;2.55;;;;;;;;;;5089843;28;20013;-93
2022/09/25 06:30:37;;;;;;;5.07;2.65;;;;;;;;;;5071231;28;20127;-92
2022/09/25 06:33:09;;;;;;;2.78;2.47;;;;;;;;;;5081420;28;20119;-91
2022/09/25 06:35:45;;;;;;;5.20;2.30;;;;;;;;;;5073079;28;20028;-91
2022/09/25 06:38:12;;;;;;;3.55;2.45;;;;;;;;;;5072510;28;20016;-90
2022/09/25 06:40:39;;;;;;;3.90;2.40;;;;;;;;;;5073827;28;20051;-92
2022/09/25 06:43:07;;;;;;;4.72;2.28;;;;;;;;;;5074977;28;20118;-91
2022/09/25 06:45:33;;;;;;;3.67;2.38;;;;;;;;;;5077899;28;20023;-91
2022/09/25 06:48:03;;;;;;;3.88;2.30;;;;;;;;;;5091415;28;20028;-91
2022/09/25 06:50:34;;;;;;;3.00;2.35;;;;;;;;;;5076054;28;20054;-92
2022/09/25 06:53:00;;;;;;;4.00;2.70;;;;;;;;;;5074209;28;20028;-91
2022/09/25 06:55:27;;;;;;;3.13;2.20;;;;;;;;;;5075324;28;20490;-91
2022/09/25 06:57:53;;;;;;;3.97;2.80;;;;;;;;;;5069937;28;20183;-92
2022/09/25 07:00:20;;;;;;;4.70;2.63;;;;;;;;;;5072929;28;20024;-91
2022/09/25 07:05:32;;;;;;;4.10;2.60;;;;;;;;;;5089701;28;20391;-90
2022/09/25 07:07:58;;;;;;;5.55;2.72;;;;;;;;;;5078167;28;20044;-91
2022/09/25 07:10:24;;;;;;;6.00;3.28;;;;;;;;;;5081488;28;20497;-91
2022/09/25 07:12:53;;;;;;;3.35;2.50;;;;;;;;;;5076605;28;20027;-90
2022/09/25 07:15:21;;;;;;;4.85;2.30;;;;;;;;;;5074697;28;20506;-91
2022/09/25 07:17:48;;;;;;;3.35;2.90;;;;;;;;;;5077772;28;20114;-90
2022/09/25 07:20:15;;;;;;;2.60;2.25;;;;;;;;;;5071924;28;20036;-90
2022/09/25 07:22:42;;;;;;;3.78;2.40;;;;;;;;;;5069465;28;20610;-90
2022/09/25 07:25:09;;;;;;;4.10;2.42;;;;;;;;;;5072875;28;20028;-89
2022/09/25 07:27:36;;;;;;;3.55;2.28;;;;;;;;;;5071029;28;20020;-90
2022/09/25 07:30:15;;;;;;;5.60;2.53;;;;;;;;;;5072164;28;20038;-90
2022/09/25 07:32:43;;;;;;;6.38;2.45;;;;;;;;;;5070731;28;20029;-90
2022/09/25 07:35:18;;;;;;;5.22;2.50;;;;;;;;;;5090497;28;20028;-90
2022/09/25 07:37:51;;;;;;;4.22;2.15;;;;;;;;;;5076321;28;20024;-90
2022/09/25 07:40:17;;;;;;;4.18;2.63;;;;;;;;;;5070621;28;20035;-89
2022/09/25 07:42:43;;;;;;;4.80;2.53;;;;;;;;;;5070754;28;20033;-90
2022/09/25 07:45:09;;;;;;;4.47;2.40;;;;;;;;;;5093353;28;20051;-90
2022/09/25 07:47:36;;;;;;;3.55;2.58;;;;;;;;;;5115013;22;20118;-78
2022/09/25 07:50:02;;;;;;;3.95;2.25;;;;;;;;;;5063315;28;20036;-79
2022/09/25 07:52:28;;;;;;;3.17;2.20;;;;;;;;;;5061924;28;20523;-79
2022/09/25 07:54:54;;;;;;;3.35;2.70;;;;;;;;;;5063421;28;20086;-76
2022/09/25 07:57:21;;;;;;;4.30;2.60;;;;;;;;;;5063574;28;20020;-77
2022/09/25 07:59:47;;;;;;;3.88;2.30;;;;;;;;;;5062648;28;20035;-79
2022/09/25 08:02:13;;;;;;;2.72;2.35;;;;;;;;;;5063280;28;20025;-78
2022/09/25 08:04:39;;;;;;;4.57;2.50;;;;;;;;;;5061786;28;20024;-78
2022/09/25 08:07:06;;;;;;;3.20;2.50;;;;;;;;;;5063211;28;20479;-78
2022/09/25 08:09:32;;;;;;;3.50;2.53;;;;;;;;;;5044561;28;20467;-77
2022/09/25 08:11:58;;;;;;;2.95;2.20;;;;;;;;;;5045603;28;20035;-75
2022/09/25 08:14:24;;;;;;;6.10;2.50;;;;;;;;;;5061708;28;20024;-77
2022/09/25 08:16:54;;;;;;;3.88;2.58;;;;;;;;;;5063095;28;20107;-78
2022/09/25 08:19:22;;;;;;;5.18;2.47;;;;;;;;;;5063216;28;20102;-77
2022/09/25 08:21:49;;;;;;;4.28;2.28;;;;;;;;;;5064145;28;20420;-78
2022/09/25 08:24:15;;;;;;;4.97;2.67;;;;;;;;;;5046043;28;20544;-79
2022/09/25 08:26:41;;;;;;;3.20;2.10;;;;;;;;;;5060428;28;20790;-76
2022/09/25 08:29:08;;;;;;;4.22;2.22;;;;;;;;;;5042789;28;20052;-78
2022/09/25 08:31:34;;;;;;;4.13;2.13;;;;;;;;;;5043466;28;20021;-79
2022/09/25 08:34:01;;;;;;;4.30;2.10;;;;;;;;;;5042569;28;20021;-78
2022/09/25 08:36:27;;;;;;;2.80;2.08;;;;;;;;;;5043194;28;20520;-78
2022/09/25 08:38:55;;;;;;;2.80;2.08;;;;;;;;;;5041642;28;20027;-79
2022/09/25 08:41:30;;;;;;;3.30;2.15;;;;;;;;;;5025580;28;20025;-77
2022/09/25 08:44:15;;;;;;;2.92;1.98;;;;;;;;;;5024773;28;20017;-80
2022/09/25 08:49:30;;;;;;;4.63;2.10;;;;;;;;;;5029379;28;20067;-77
2022/09/25 08:52:00;;;;;;;4.97;2.63;;;;;;;;;;5042191;28;20020;-78
2022/09/25 08:54:27;;;;;;;3.75;2.20;;;;;;;;;;5042598;28;20052;-80
2022/09/25 08:56:56;;;;;;;6.35;2.17;;;;;;;;;;5024129;28;20032;-79
2022/09/25 08:59:25;;;;;;;6.25;2.20;;;;;;;;;;5023474;28;20028;-78
2022/09/25 09:01:54;;;;;;;2.70;2.08;;;;;;;;;;5042198;28;20433;-77
2022/09/25 09:04:30;;;;;;;5.70;2.13;;;;;;;;;;5042257;28;20025;-76
2022/09/25 09:07:04;;;;;;;2.25;1.92;;;;;;;;;;5041502;28;20022;-80
2022/09/25 09:09:35;;;;;;;4.10;1.92;;;;;;;;;;5041813;28;20029;-77
2022/09/25 09:12:24;;;;;;;4.57;2.40;;;;;;;;;;5040303;28;20032;-79
2022/09/25 09:14:52;;;;;;;2.97;2.13;;;;;;;;;;5016373;28;20033;-77
2022/09/25 09:17:26;;;;;;;4.35;2.20;;;;;;;;;;5023969;28;20151;-76
2022/09/25 09:19:54;;;;;;;5.28;2.63;;;;;;;;;;5032512;28;20546;-73
2022/09/25 09:22:25;;;;;;;2.42;2.03;;;;;;;;;;5041572;28;20100;-78
2022/09/25 09:24:51;;;;;;;7.10;2.37;;;;;;;;;;5041954;28;20530;-73
2022/09/25 09:27:20;;;;;;;2.92;2.28;;;;;;;;;;5041450;28;20448;-73
2022/09/25 09:30:05;;;;;;;2.35;2.08;;;;;;;;;;5041965;28;20056;-72
2022/09/25 09:32:37;;;;;;;3.08;2.45;;;;;;;;;;5041516;28;20021;-74
2022/09/25 09:35:19;;;;;;;3.28;2.17;;;;;;;;;;5039923;28;20075;-75
2022/09/25 09:37:45;;;;;;;2.42;2.13;;;;;;;;;;5040532;28;20021;-76
2022/09/25 09:40:15;;;;;;;4.38;2.10;;;;;;;;;;5041556;28;20021;-79
2022/09/25 09:42:44;;;;;;;4.78;2.00;;;;;;;;;;5043657;28;20028;-77
2022/09/25 09:45:18;;;;;;;4.22;2.33;;;;;;;;;;5036192;28;20029;-74
2022/09/25 09:48:05;;;;;;;2.20;2.00;;;;;;;;;;5040021;28;20206;-73
2022/09/25 09:50:39;;;;;;;4.18;2.20;;;;;;;;;;5039804;28;20140;-74
2022/09/25 09:53:26;;;;;;;3.28;2.35;;;;;;;;;;5037699;28;20167;-73
2022/09/25 09:55:56;;;;;;;5.32;2.30;;;;;;;;;;4999387;28;20486;-77
2022/09/25 09:58:29;;;;;;;4.07;2.17;;;;;;;;;;5036898;28;20089;-73
2022/09/25 10:00:56;;;;;;;3.55;1.90;;;;;;;;;;5037696;28;20036;-73
2022/09/25 10:03:24;;;;;;;3.90;2.30;;;;;;;;;;5029625;28;20005;-72
2022/09/25 10:05:52;;;;;;;4.20;1.85;;;;;;;;;;5040578;28;20104;-75
2022/09/25 10:08:19;;;;;;;4.07;2.30;;;;;;;;;;5038173;28;20029;-74
2022/09/25 10:10:47;;;;;;;2.10;1.90;;;;;;;;;;5036625;28;20140;-76
2022/09/25 10:13:34;;;;;;;5.70;2.28;;;;;;;;;;5043543;28;20021;-78
2022/09/25 10:16:11;;;;;;;3.13;2.10;;;;;;;;;;5023682;28;20029;-74
2022/09/25 10:18:37;;;;;;;5.53;2.00;;;;;;;;;;5026063;28;20028;-74
2022/09/25 10:21:13;;;;;;;4.35;2.22;;;;;;;;;;5044334;28;20027;-76
2022/09/25 10:23:46;;;;;;;4.50;2.60;;;;;;;;;;5030857;28;20166;-75
2022/09/25 10:26:35;;;;;;;5.30;2.30;;;;;;;;;;5044875;28;20060;-78
2022/09/25 10:29:07;;;;;;;2.70;2.50;;;;;;;;;;5042763;28;20036;-74
2022/09/25 10:31:38;;;;;;;3.13;2.80;;;;;;;;;;5047425;28;20100;-74
2022/09/25 10:34:04;;;;;;;3.03;2.35;;;;;;;;;;5040183;28;20028;-73
2022/09/25 10:36:35;;;;;;;4.00;2.85;;;;;;;;;;5047149;28;20040;-77
2022/09/25 10:39:03;;;;;;;2.67;2.03;;;;;;;;;;5029092;28;20025;-73
2022/09/25 10:41:31;;;;;;;3.53;2.22;;;;;;;;;;5040370;28;20028;-72
2022/09/25 10:44:01;;;;;;;3.42;2.10;;;;;;;;;;5036014;28;20507;-73
2022/09/25 10:52:13;;;;;;;4.15;2.20;;;;;;;;;;5037027;28;20095;-76
2022/09/25 10:54:39;;;;;;;5.32;2.22;;;;;;;;;;5045115;28;20551;-73
2022/09/25 10:57:16;;;;;;;3.63;2.08;;;;;;;;;;5028711;28;20021;-80
2022/09/25 10:59:48;;;;;;;4.05;2.22;;;;;;;;;;5043053;28;20087;-75
2022/09/25 11:02:20;;;;;;;4.47;2.20;;;;;;;;;;5043690;28;20397;-79
2022/09/25 11:04:50;;;;;;;3.10;2.00;;;;;;;;;;5029375;28;20098;-78
2022/09/25 11:07:19;;;;;;;2.22;1.77;;;;;;;;;;5043710;28;20036;-77
2022/09/25 11:09:45;;;;;;;2.72;1.85;;;;;;;;;;5043802;28;20025;-77
2022/09/25 11:12:14;;;;;;;4.15;1.98;;;;;;;;;;5043323;28;20111;-76
2022/09/25 11:14:45;;;;;;;6.57;2.30;;;;;;;;;;5039158;28;20172;-78
2022/09/25 11:17:11;;;;;;;;;;;;;;;;;;5042208;28;20013;-77
2022/09/25 11:19:38;;;;;;;5.63;1.98;;;;;;;;;;5039048;28;19943;-77
2022/09/25 11:22:16;;;;;;;2.03;1.77;;;;;;;;;;5041175;28;20053;-78
2022/09/25 11:24:51;;;;;;;2.70;1.80;;;;;;;;;;5035684;28;20017;-77
2022/09/25 11:27:30;;;;;;;2.95;1.58;;;;;;;;;;5040316;28;20028;-77
2022/09/25 11:30:11;;;;;;;3.33;1.80;;;;;;;;;;5023671;28;20040;-76
2022/09/25 11:32:49;;;;;;;3.22;1.85;;;;;;;;;;5041402;28;20047;-76
2022/09/25 11:35:25;;;;;;;2.95;1.45;;;;;;;;;;5032217;28;20112;-78
2022/09/25 11:38:03;;;;;;;3.22;1.75;;;;;;;;;;5041177;28;20396;-76
2022/09/25 11:43:30;;;;;;;4.53;1.90;;;;;;;;;;5035336;28;20075;-78
2022/09/25 11:46:01;;;;;;;4.18;1.85;;;;;;;;;;5035795;28;20536;-78
2022/09/25 11:48:27;;;;;;;4.07;1.50;;;;;;;;;;5034073;28;20159;-76
2022/09/25 11:51:23;;;;;;;4.00;1.52;;;;;;;;;;5038484;28;20835;-76
2022/09/25 11:54:07;;;;;;;2.95;1.40;;;;;;;;;;5003136;28;20640;-76
2022/09/25 11:56:36;;;;;;;3.17;1.77;;;;;;;;;;5040123;28;20025;-76
2022/09/25 11:59:12;;;;;;;1.83;1.30;;;;;;;;;;5042515;28;20021;-81
2022/09/25 12:01:44;;;;;;;3.10;1.50;;;;;;;;;;5021528;28;20033;-76
2022/09/25 12:04:43;;;;;;;6.13;1.70;;;;;;;;;;5028260;28;20543;-77
2022/09/25 12:07:28;;;;;;;8.07;1.98;;;;;;;;;;5011219;28;20029;-78
2022/09/25 12:10:20;;;;;;;4.35;1.67;;;;;;;;;;5041819;28;20083;-78
2022/09/25 12:13:11;;;;;;;4.25;1.60;;;;;;;;;;5018271;28;20041;-78
2022/09/25 12:15:49;;;;;;;2.47;1.52;;;;;;;;;;5040545;28;20021;-77
2022/09/25 12:18:36;;;;;;;4.30;1.63;;;;;;;;;;5017888;28;20036;-78
2022/09/25 12:21:18;;;;;;;2.75;1.60;;;;;;;;;;5021666;28;20122;-79
2022/09/25 12:23:56;;;;;;;4.75;2.00;;;;;;;;;;5037724;28;20024;-78
2022/09/25 12:26:33;;;;;;;2.78;1.60;;;;;;;;;;5037143;28;20032;-78
2022/09/25 12:29:12;;;;;;;3.05;1.58;;;;;;;;;;5042020;28;20101;-76
2022/09/25 12:31:54;;;;;;;6.00;1.90;;;;;;;;;;5040717;28;20017;-73
2022/09/25 12:34:20;;;;;;;6.05;1.70;;;;;;;;;;5038234;28;20025;-78
2022/09/25 12:36:50;;;;;;;2.80;1.90;;;;;;;;;;5042045;28;20017;-78
2022/09/25 12:39:17;;;;;;;3.25;1.60;;;;;;;;;;5041005;28;20107;-79
2022/09/25 12:41:46;;;;;;;3.70;1.70;;;;;;;;;;5040765;28;20473;-77
2022/09/25 12:44:17;;;;;;;3.00;1.77;;;;;;;;;;5035511;28;20043;-74
2022/09/25 12:46:49;;;;;;;2.78;1.63;;;;;;;;;;5039280;28;20044;-78
2022/09/25 12:49:19;;;;;;;2.38;1.65;;;;;;;;;;5036400;28;20029;-78
2022/09/25 12:51:52;;;;;;;2.80;1.80;;;;;;;;;;5038216;28;20025;-77
2022/09/25 12:54:22;;;;;;;2.63;1.80;;;;;;;;;;5041375;28;20070;-77
2022/09/25 12:57:00;;;;;;;3.72;1.63;;;;;;;;;;5022559;28;20473;-78
2022/09/25 12:59:37;;;;;;;3.10;1.75;;;;;;;;;;5041612;28;20990;-75
2022/09/25 13:02:18;;;;;;;13.57;3.08;;;;;;;;;;5040866;28;20021;-77
2022/09/25 13:05:03;;;;;;;4.15;1.90;;;;;;;;;;5038361;28;20582;-77
2022/09/25 13:07:38;;;;;;;2.40;1.90;;;;;;;;;;5041488;28;20508;-76
2022/09/25 13:10:23;;;;;;;2.60;1.90;;;;;;;;;;5041669;28;20025;-77
2022/09/25 13:12:51;;;;;;;2.05;1.77;;;;;;;;;;5037414;28;20048;-77
2022/09/25 13:15:20;;;;;;;5.38;1.92;;;;;;;;;;5023522;28;20103;-75
2022/09/25 13:30:36;;;;;;;;;;;;;;;;;;;;;
2022/09/25 13:33:33;;;;;;;;;;;;;;;;;;;;;
2022/09/25 13:42:58;;;;;;;;;;;;;;;;;;;;;
2022/09/25 13:48:54;;;;;;;;;;;;;;;;;;;;;
2022/09/25 13:54:16;;;;;;;4.30;3.28;;;;;;;;;;5028005;28;20025;-76
2022/09/25 13:56:54;;;;;;;4.10;2.72;;;;;;;;;;5020871;28;20025;-77
2022/09/25 13:59:23;;;;;;;4.03;2.72;;;;;;;;;;5039841;28;20021;-76
2022/09/25 14:01:52;;;;;;;3.25;2.53;;;;;;;;;;5040348;28;20520;-78
2022/09/25 14:04:23;;;;;;;7.28;2.63;;;;;;;;;;5038141;28;20024;-76
2022/09/25 14:07:05;;;;;;;5.55;2.90;;;;;;;;;;5021870;28;20074;-76
2022/09/25 14:09:32;;;;;;;14.63;3.45;;;;;;;;;;5021870;28;20683;-74
2022/09/25 14:12:27;;;;;;;13.52;3.00;;;;;;;;;;5027496;28;20439;-76
2022/09/25 14:15:12;;;;;;;9.85;3.20;;;;;;;;;;5024862;28;20037;-75
2022/09/25 14:17:41;;;;;;;3.55;2.33;;;;;;;;;;5040655;28;20096;-75
2022/09/25 14:20:26;;;;;;;3.75;2.20;;;;;;;;;;5040094;28;20025;-76
2022/09/25 14:22:54;;;;;;;2.97;2.05;;;;;;;;;;5021180;28;20383;-76
2022/09/25 14:25:39;;;;;;;2.17;1.80;;;;;;;;;;5036562;28;20423;-76
2022/09/25 14:28:23;;;;;;;3.47;2.00;;;;;;;;;;5040381;28;20021;-76
2022/09/25 14:31:08;;;;;;;4.45;1.98;;;;;;;;;;5040498;28;20041;-76
2022/09/25 14:33:42;;;;;;;2.72;1.90;;;;;;;;;;5031672;28;20036;-76
2022/09/25 14:36:21;;;;;;;2.83;1.60;;;;;;;;;;5036251;28;20425;-76
2022/09/25 14:39:05;;;;;;;2.95;1.67;;;;;;;;;;5041324;28;20025;-76
2022/09/25 14:41:51;;;;;;;3.00;1.50;;;;;;;;;;5040989;28;20052;-75
2022/09/25 14:44:35;;;;;;;3.65;1.60;;;;;;;;;;5039020;28;20032;-76
2022/09/25 14:47:06;;;;;;;3.20;1.90;;;;;;;;;;5033869;28;20396;-74
2022/09/25 14:49:37;;;;;;;3.20;1.83;;;;;;;;;;5038225;28;20048;-76
2022/09/25 14:52:10;;;;;;;2.47;1.80;;;;;;;;;;5036551;28;20057;-76
2022/09/25 14:54:52;;;;;;;4.85;1.73;;;;;;;;;;5022019;28;20022;-74
2022/09/25 14:57:21;;;;;;;2.75;1.95;;;;;;;;;;5039007;28;20025;-76
2022/09/25 14:59:50;;;;;;;2.55;1.70;;;;;;;;;;5038590;28;20108;-76
2022/09/25 15:02:32;;;;;;;2.20;1.65;;;;;;;;;;5039250;28;20112;-75
2022/09/25 15:04:59;;;;;;;3.55;1.58;;;;;;;;;;5039719;28;20491;-75
2022/09/25 15:07:44;;;;;;;2.97;1.55;;;;;;;;;;5033770;28;20212;-76
2022/09/25 15:10:39;;;;;;;3.15;1.45;;;;;;;;;;5023218;28;20042;-75
2022/09/25 15:13:16;;;;;;;3.45;1.90;;;;;;;;;;5028373;28;20041;-76
2022/09/25 15:17:20;;;;;;;2.75;1.70;;;;;;;;;;5043785;28;20029;-76
2022/09/25 15:18:31;;;;;;;3.42;1.95;;;;;;;;;;5043286;28;20024;-76
2022/09/25 15:20:57;;;;;;;6.15;2.08;;;;;;;;;;5043680;28;20021;-75
2022/09/25 15:23:24;;;;;;;3.45;1.90;;;;;;;;;;5041976;28;20105;-75
2022/09/25 15:25:52;;;;;;;2.60;1.70;;;;;;;;;;5040716;28;20115;-75
2022/09/25 15:28:19;;;;;;;4.15;1.80;;;;;;;;;;5038819;28;20056;-75
2022/09/25 15:30:46;;;;;;;3.90;1.95;;;;;;;;;;5037000;28;20166;-76
2022/09/25 15:33:22;;;;;;;2.22;1.77;;;;;;;;;;5037134;28;20104;-76
2022/09/25 15:35:58;;;;;;;3.63;2.47;;;;;;;;;;5038199;28;20025;-75
2022/09/25 15:38:50;;;;;;;3.28;2.10;;;;;;;;;;5046003;28;20071;-76
2022/09/25 15:41:17;;;;;;;8.15;2.35;;;;;;;;;;5043363;28;20308;-76
2022/09/25 15:43:43;;;;;;;4.07;2.50;;;;;;;;;;5046568;28;20083;-75
2022/09/25 15:46:09;;;;;;;5.55;2.50;;;;;;;;;;5046870;28;20036;-76
2022/09/25 15:48:40;;;;;;;3.97;2.58;;;;;;;;;;5029319;28;20539;-76
2022/09/25 15:51:17;;;;;;;3.13;2.45;;;;;;;;;;5041910;28;20190;-73
2022/09/25 15:53:48;;;;;;;4.07;2.30;;;;;;;;;;5046286;28;20056;-73
2022/09/25 15:56:15;;;;;;;3.42;2.30;;;;;;;;;;5046286;28;20027;-73
2022/09/25 15:58:44;;;;;;;2.95;1.90;;;;;;;;;;5046031;28;20021;-74
2022/09/25 16:06:43;;;;;;;3.58;2.08;;;;;;;;;;5046194;28;20405;-75